createdAt,value
2023-02-23T00:00:36.702Z,8.10
2023-02-23T00:03:06.782Z,7.43
2023-02-23T00:05:38.452Z,6.93
2023-02-23T00:08:08.304Z,7.60
2023-02-23T00:10:38.247Z,7.00
2023-02-23T00:13:07.764Z,8.03
2023-02-23T00:15:37.931Z,8.27
2023-02-23T00:18:07.483Z,8.57
2023-02-23T00:20:39.330Z,8.05
2023-02-23T00:23:09.790Z,7.00
2023-02-23T00:25:42.296Z,7.20
2023-02-23T00:28:11.976Z,8.03
2023-02-23T00:30:41.832Z,7.60
2023-02-23T00:33:12.511Z,7.40
2023-02-23T00:38:12.291Z,7.12
2023-02-23T00:40:42.340Z,8.63
2023-02-23T00:43:11.865Z,7.60
2023-02-23T00:45:42.028Z,7.77
2023-02-23T00:48:11.846Z,7.60
2023-02-23T00:50:41.898Z,8.13
2023-02-23T00:53:11.725Z,8.77
2023-02-23T00:55:42.735Z,8.43
2023-02-23T00:58:17.427Z,8.90
2023-02-23T01:00:47.589Z,8.15
2023-02-23T01:03:17.311Z,8.17
2023-02-23T01:05:48.796Z,7.67
2023-02-23T01:08:19.871Z,8.08
2023-02-23T01:10:51.321Z,9.23
2023-02-23T01:13:22.780Z,8.20
2023-02-23T01:18:22.333Z,6.57
2023-02-23T01:20:52.227Z,7.27
2023-02-23T01:23:22.869Z,8.08
2023-02-23T01:25:52.410Z,6.50
2023-02-23T01:28:22.064Z,9.07
2023-02-23T01:30:52.011Z,8.80
2023-02-23T01:33:21.613Z,7.93
2023-02-23T01:36:01.790Z,7.73
2023-02-23T01:38:31.587Z,7.83
2023-02-23T01:41:03.139Z,8.97
2023-02-23T01:43:32.943Z,7.97
2023-02-23T01:46:03.018Z,7.67
2023-02-23T01:48:36.180Z,7.53
2023-02-23T01:51:18.641Z,7.63
2023-02-23T01:53:52.535Z,7.97
2023-02-23T01:56:25.117Z,9.73
2023-02-23T01:58:57.958Z,7.77
2023-02-23T02:01:29.452Z,8.13
2023-02-23T02:04:07.424Z,8.83
2023-02-23T02:06:39.480Z,7.97
2023-02-23T02:09:13.626Z,9.07
2023-02-23T02:11:45.863Z,7.90
2023-02-23T02:14:18.717Z,6.75
2023-02-23T02:16:52.887Z,8.53
2023-02-23T02:20:00.602Z,8.33
2023-02-23T02:23:02.354Z,8.67
2023-02-23T02:25:52.578Z,7.97
2023-02-23T02:28:45.481Z,7.25
2023-02-23T02:31:36.572Z,8.35
2023-02-23T02:34:36.997Z,8.28
2023-02-23T02:37:43.252Z,8.20
2023-02-23T02:40:27.844Z,7.53
2023-02-23T02:43:05.126Z,7.57
2023-02-23T02:45:46.964Z,8.57
2023-02-23T02:48:30.165Z,7.63
2023-02-23T02:51:13.027Z,7.72
2023-02-23T02:53:54.690Z,7.07
2023-02-23T02:56:27.521Z,7.30
2023-02-23T02:58:57.676Z,8.90
2023-02-23T03:01:49.546Z,10.70
2023-02-23T03:04:42.996Z,7.73
2023-02-23T03:07:36.190Z,7.63
2023-02-23T03:10:40.722Z,9.10
2023-02-23T03:13:37.724Z,10.07
2023-02-23T03:16:43.174Z,8.63
2023-02-23T03:19:42.524Z,9.13
2023-02-23T03:22:33.570Z,8.25
2023-02-23T03:25:30.262Z,9.88
2023-02-23T03:28:24.514Z,7.97
2023-02-23T03:31:18.821Z,8.97
2023-02-23T03:34:18.330Z,9.05
2023-02-23T03:37:09.091Z,7.80
2023-02-23T03:40:02.078Z,10.50
2023-02-23T03:42:53.287Z,8.73
2023-02-23T03:45:44.142Z,8.35
2023-02-23T03:48:34.601Z,8.83
2023-02-23T03:51:27.481Z,9.98
2023-02-23T03:54:23.747Z,10.03
2023-02-23T03:57:14.006Z,8.90
2023-02-23T04:00:05.515Z,11.07
2023-02-23T04:02:58.184Z,11.10
2023-02-23T04:05:48.009Z,9.40
2023-02-23T04:08:38.862Z,10.88
2023-02-23T04:11:40.770Z,10.60
2023-02-23T04:14:12.654Z,11.67
2023-02-23T04:16:43.708Z,11.47
2023-02-23T04:19:14.750Z,10.43
2023-02-23T04:24:13.225Z,11.77
2023-02-23T04:26:43.551Z,11.05
2023-02-23T04:29:14.596Z,11.50
2023-02-23T04:31:44.566Z,11.20
2023-02-23T04:34:15.368Z,12.57
2023-02-23T04:36:45.465Z,12.55
2023-02-23T04:39:15.456Z,14.93
2023-02-23T04:41:45.972Z,12.33
2023-02-23T04:44:15.475Z,12.57
2023-02-23T04:46:45.418Z,12.93
2023-02-23T04:49:15.070Z,12.33
2023-02-23T04:51:44.947Z,12.77
2023-02-23T04:54:14.750Z,11.97
2023-02-23T04:56:44.639Z,15.87
2023-02-23T04:59:14.402Z,14.27
2023-02-23T05:01:44.267Z,11.93
2023-02-23T05:04:13.962Z,13.70
2023-02-23T05:06:43.867Z,14.50
2023-02-23T05:09:13.690Z,14.10
2023-02-23T05:11:43.592Z,13.78
2023-02-23T05:14:13.493Z,15.13
2023-02-23T05:16:43.306Z,13.30
2023-02-23T05:19:13.065Z,14.20
2023-02-23T05:21:43.017Z,14.30
2023-02-23T05:24:14.330Z,13.67
2023-02-23T05:26:44.006Z,13.72
2023-02-23T05:29:13.751Z,14.50
2023-02-23T05:31:43.900Z,13.77
2023-02-23T05:34:14.323Z,14.27
2023-02-23T05:36:44.493Z,13.97
2023-02-23T05:39:14.319Z,15.73
2023-02-23T05:41:44.124Z,14.80
2023-02-23T05:44:14.213Z,15.57
2023-02-23T05:46:45.529Z,15.10
2023-02-23T05:49:15.485Z,16.87
2023-02-23T05:51:45.297Z,16.70
2023-02-23T05:54:15.161Z,17.67
2023-02-23T05:56:45.043Z,14.60
2023-02-23T05:59:16.537Z,15.95
2023-02-23T06:01:46.460Z,15.70
2023-02-23T06:04:17.378Z,15.47
2023-02-23T06:06:47.178Z,17.80
2023-02-23T06:09:17.118Z,17.45
2023-02-23T06:11:46.908Z,16.03
2023-02-23T06:14:16.825Z,15.43
2023-02-23T06:16:48.236Z,15.10
2023-02-23T06:19:18.075Z,16.23
2023-02-23T06:21:48.200Z,16.07
2023-02-23T06:24:19.317Z,14.70
2023-02-23T06:26:49.177Z,16.50
2023-02-23T06:29:18.953Z,16.27
2023-02-23T06:31:48.891Z,18.10
2023-02-23T06:34:19.058Z,15.33
2023-02-23T06:36:52.976Z,18.37
2023-02-23T06:39:22.514Z,17.73
2023-02-23T06:41:52.411Z,16.57
2023-02-23T06:44:22.744Z,14.60
2023-02-23T06:46:53.509Z,16.48
2023-02-23T06:49:23.246Z,16.33
2023-02-23T06:51:53.102Z,18.50
2023-02-23T06:54:23.772Z,17.97
2023-02-23T06:56:55.328Z,17.23
2023-02-23T06:59:25.138Z,17.00
2023-02-23T07:01:55.030Z,18.43
2023-02-23T07:04:25.832Z,17.67
2023-02-23T07:06:55.699Z,17.82
2023-02-23T07:09:25.570Z,17.00
2023-02-23T07:11:55.417Z,18.73
2023-02-23T07:14:26.935Z,17.43
2023-02-23T07:16:57.088Z,17.57
2023-02-23T07:19:26.837Z,17.00
2023-02-23T07:21:56.784Z,19.63
2023-02-23T07:24:30.785Z,17.07
2023-02-23T07:27:02.832Z,16.30
2023-02-23T07:29:33.056Z,16.85
2023-02-23T07:32:02.987Z,17.73
2023-02-23T07:34:32.923Z,15.77
2023-02-23T07:37:03.026Z,16.50
2023-02-23T07:39:34.100Z,15.70
2023-02-23T07:42:04.855Z,16.05
2023-02-23T07:44:34.968Z,17.00
2023-02-23T07:47:04.971Z,17.47
2023-02-23T07:49:38.247Z,17.03
2023-02-23T07:52:08.068Z,16.57
2023-02-23T07:54:41.222Z,17.60
2023-02-23T07:57:12.184Z,16.60
2023-02-23T08:02:16.809Z,14.73
2023-02-23T08:04:47.967Z,18.37
2023-02-23T08:07:18.204Z,16.70
2023-02-23T08:09:50.224Z,16.52
2023-02-23T08:12:20.567Z,15.68
2023-02-23T08:14:50.169Z,16.87
2023-02-23T08:17:20.186Z,16.73
2023-02-23T08:19:50.177Z,17.77
2023-02-23T08:22:19.715Z,15.63
2023-02-23T08:27:33.955Z,15.48
2023-02-23T08:30:05.440Z,15.20
2023-02-23T08:35:07.804Z,14.15
2023-02-23T08:37:37.886Z,13.73
2023-02-23T08:40:08.015Z,13.17
2023-02-23T08:42:37.670Z,13.57
2023-02-23T08:45:08.671Z,15.67
2023-02-23T08:47:38.661Z,14.53
2023-02-23T08:50:10.326Z,15.27
2023-02-23T08:55:11.179Z,13.80
2023-02-23T08:57:40.967Z,14.20
2023-02-23T09:00:17.246Z,15.17
2023-02-23T09:02:48.392Z,14.30
2023-02-23T09:05:18.929Z,15.03
2023-02-23T09:07:49.292Z,12.63
2023-02-23T09:10:22.868Z,13.93
2023-02-23T09:12:53.173Z,14.63
2023-02-23T09:15:23.268Z,14.07
2023-02-23T09:17:54.551Z,14.47
2023-02-23T09:20:25.840Z,12.67
2023-02-23T09:22:55.673Z,14.00
2023-02-23T09:25:25.956Z,13.27
2023-02-23T09:27:59.861Z,14.07
2023-02-23T09:30:29.738Z,13.40
2023-02-23T09:32:59.715Z,13.05
2023-02-23T09:35:29.485Z,13.50
2023-02-23T09:37:59.305Z,14.40
2023-02-23T09:40:32.291Z,13.03
2023-02-23T09:43:13.361Z,13.07
2023-02-23T09:45:46.574Z,14.53
2023-02-23T09:48:22.564Z,12.73
2023-02-23T09:50:58.014Z,12.57
2023-02-23T09:53:46.020Z,12.33
2023-02-23T09:56:27.826Z,13.90
2023-02-23T09:58:57.843Z,12.63
2023-02-23T10:01:51.900Z,11.10
2023-02-23T10:04:43.056Z,13.47
2023-02-23T10:07:32.854Z,14.03
2023-02-23T10:10:22.545Z,12.50
2023-02-23T10:12:58.167Z,12.20
2023-02-23T10:15:56.059Z,13.37
2023-02-23T10:18:46.000Z,12.37
2023-02-23T10:21:09.407Z,12.93
2023-02-23T10:23:42.272Z,10.93
2023-02-23T10:26:15.507Z,12.88
2023-02-23T10:28:46.921Z,11.87
2023-02-23T10:34:07.161Z,11.20
2023-02-23T10:36:40.465Z,12.75
2023-02-23T10:39:10.631Z,11.17
2023-02-23T10:41:41.054Z,12.33
2023-02-23T10:44:17.180Z,12.03
2023-02-23T10:46:49.738Z,12.10
2023-02-23T10:49:25.017Z,11.50
2023-02-23T10:51:56.449Z,11.30
2023-02-23T10:54:41.777Z,11.03
2023-02-23T10:57:14.432Z,11.33
2023-02-23T10:59:47.305Z,11.30
2023-02-23T11:02:20.373Z,10.53
2023-02-23T11:04:57.027Z,11.07
2023-02-23T11:07:31.070Z,9.95
2023-02-23T11:10:03.572Z,11.13
2023-02-23T11:12:43.128Z,11.57
2023-02-23T11:15:46.332Z,12.57
2023-02-23T11:18:05.011Z,11.53
2023-02-23T11:20:41.884Z,11.10
2023-02-23T11:23:23.401Z,12.27
2023-02-23T11:25:59.710Z,11.00
2023-02-23T11:28:38.414Z,9.90
2023-02-23T11:31:17.521Z,10.73
2023-02-23T11:33:48.529Z,11.23
2023-02-23T11:38:57.328Z,10.35
2023-02-23T11:41:27.537Z,11.25
2023-02-23T11:44:04.316Z,10.30
2023-02-23T11:46:39.729Z,11.13
2023-02-23T11:49:12.069Z,11.70
2023-02-23T11:51:44.182Z,11.28
2023-02-23T11:54:34.031Z,11.53
2023-02-23T11:57:03.926Z,11.33
2023-02-23T11:59:36.818Z,10.73
2023-02-23T12:02:23.184Z,11.50
2023-02-23T12:05:05.339Z,11.73
2023-02-23T12:07:44.107Z,12.87
2023-02-23T12:10:46.950Z,10.83
2023-02-23T12:13:34.641Z,11.00
2023-02-23T12:16:10.412Z,11.53
2023-02-23T12:18:53.187Z,11.13
2023-02-23T12:21:38.079Z,11.13
2023-02-23T12:24:13.769Z,12.13
2023-02-23T12:26:58.003Z,10.93
2023-02-23T12:29:39.918Z,10.57
2023-02-23T12:32:18.768Z,10.93
2023-02-23T12:34:54.533Z,11.83
2023-02-23T12:37:30.077Z,11.55
2023-02-23T12:40:05.696Z,11.53
2023-02-23T12:42:59.257Z,12.05
2023-02-23T12:45:32.112Z,11.47
2023-02-23T12:48:26.320Z,13.10
2023-02-23T12:50:59.493Z,11.20
2023-02-23T12:53:32.330Z,11.93
2023-02-23T12:56:08.047Z,10.77
2023-02-23T12:59:14.398Z,10.83
2023-02-23T13:01:55.788Z,11.33
2023-02-23T13:04:40.476Z,12.68
2023-02-23T13:07:21.938Z,10.85
2023-02-23T13:10:06.685Z,9.97
2023-02-23T13:12:49.358Z,12.27
2023-02-23T13:15:27.805Z,11.33
2023-02-23T13:18:06.302Z,10.63
2023-02-23T13:20:53.555Z,10.60
2023-02-23T13:23:37.711Z,9.37
2023-02-23T13:26:26.697Z,10.67
2023-02-23T13:29:08.797Z,10.93
2023-02-23T13:31:41.711Z,9.97
2023-02-23T13:34:14.390Z,11.60
2023-02-23T13:36:46.010Z,10.73
2023-02-23T13:39:27.255Z,11.03
2023-02-23T13:42:12.335Z,10.00
2023-02-23T13:45:03.481Z,11.13
2023-02-23T13:50:18.795Z,10.88
2023-02-23T13:52:48.663Z,10.40
2023-02-23T13:55:47.093Z,9.73
2023-02-23T13:58:08.798Z,10.47
2023-02-23T14:00:39.124Z,9.10
2023-02-23T14:03:11.345Z,9.13
2023-02-23T14:05:46.887Z,9.55
2023-02-23T14:08:25.230Z,10.03
2023-02-23T14:10:57.312Z,10.07
2023-02-23T14:13:33.445Z,9.47
2023-02-23T14:16:18.572Z,9.83
2023-02-23T14:18:54.375Z,9.73
2023-02-23T14:21:35.837Z,10.17
2023-02-23T14:24:15.300Z,10.53
2023-02-23T14:27:15.005Z,9.83
2023-02-23T14:30:05.020Z,9.57
2023-02-23T14:32:40.873Z,10.03
2023-02-23T14:35:36.547Z,9.63
2023-02-23T14:38:10.261Z,9.43
2023-02-23T14:40:43.121Z,9.63
2023-02-23T14:43:35.481Z,10.07
2023-02-23T14:46:22.067Z,10.32
2023-02-23T14:49:10.450Z,10.33
2023-02-23T14:51:49.316Z,9.57
2023-02-23T14:54:28.104Z,10.17
2023-02-23T14:56:59.820Z,9.47
2023-02-23T14:59:41.922Z,10.82
2023-02-23T15:02:20.333Z,9.23
2023-02-23T15:04:50.245Z,10.23
2023-02-23T15:07:27.096Z,8.53
2023-02-23T15:09:59.717Z,9.30
2023-02-23T15:12:32.140Z,8.58
2023-02-23T15:15:04.342Z,8.85
2023-02-23T15:17:35.281Z,9.80
2023-02-23T15:22:41.761Z,8.30
2023-02-23T15:27:45.241Z,8.75
2023-02-23T15:30:31.829Z,9.63
2023-02-23T15:33:06.673Z,9.10
2023-02-23T15:35:40.700Z,9.37
2023-02-23T15:38:17.967Z,8.80
2023-02-23T15:40:42.376Z,8.80
2023-02-23T15:43:13.015Z,9.47
2023-02-23T15:45:49.068Z,8.98
2023-02-23T15:48:22.745Z,8.13
2023-02-23T15:50:57.333Z,8.80
2023-02-23T15:53:33.565Z,9.20
2023-02-23T15:56:13.829Z,8.93
2023-02-23T15:58:56.142Z,9.63
2023-02-23T16:01:26.266Z,8.68
2023-02-23T16:04:05.025Z,9.70
2023-02-23T16:06:55.838Z,10.33
2023-02-23T16:09:29.036Z,10.70
2023-02-23T16:12:04.693Z,9.23
2023-02-23T16:14:37.559Z,9.87
2023-02-23T16:17:12.227Z,10.03
2023-02-23T16:19:41.701Z,8.40
2023-02-23T16:22:17.290Z,11.60
2023-02-23T16:24:48.681Z,11.50
2023-02-23T16:27:20.140Z,12.45
2023-02-23T16:32:24.302Z,12.77
2023-02-23T16:34:59.926Z,14.40
2023-02-23T16:37:29.888Z,14.33
2023-02-23T16:40:01.414Z,13.43
2023-02-23T16:42:34.064Z,14.27
2023-02-23T16:45:04.058Z,12.80
2023-02-23T16:47:43.623Z,13.83
2023-02-23T16:50:20.484Z,13.10
2023-02-23T16:52:53.667Z,14.07
2023-02-23T16:55:28.878Z,13.10
2023-02-23T16:58:01.830Z,14.43
2023-02-23T17:00:34.308Z,14.40
2023-02-23T17:03:06.474Z,13.53
2023-02-23T17:05:36.316Z,12.70
2023-02-23T17:08:07.153Z,13.48
2023-02-23T17:10:37.296Z,12.63
2023-02-23T17:13:10.066Z,14.73
2023-02-23T17:15:44.080Z,21.17
2023-02-23T17:18:13.915Z,18.70
2023-02-23T17:20:44.138Z,16.95
2023-02-23T17:23:13.770Z,14.87
2023-02-23T17:25:43.572Z,15.90
2023-02-23T17:28:13.217Z,15.67
2023-02-23T17:30:44.932Z,14.97
2023-02-23T17:33:15.430Z,15.13
2023-02-23T17:35:46.068Z,17.37
2023-02-23T17:38:15.718Z,22.57
2023-02-23T17:40:45.511Z,21.27
2023-02-23T17:43:15.055Z,19.63
2023-02-23T17:45:46.658Z,19.43
2023-02-23T17:48:16.358Z,19.93
2023-02-23T17:50:46.177Z,18.97
2023-02-23T17:53:15.776Z,18.93
2023-02-23T17:55:46.574Z,18.93
2023-02-23T18:00:45.033Z,16.57
2023-02-23T18:03:14.772Z,16.93
2023-02-23T18:05:44.622Z,17.80
2023-02-23T18:08:14.697Z,17.40
2023-02-23T18:10:44.804Z,18.23
2023-02-23T18:13:15.279Z,16.67
2023-02-23T18:15:50.575Z,17.60
2023-02-23T18:18:20.347Z,17.93
2023-02-23T18:20:52.467Z,17.60
2023-02-23T18:23:22.826Z,14.83
2023-02-23T18:25:52.695Z,15.80
2023-02-23T18:28:22.569Z,17.43
2023-02-23T18:30:52.402Z,15.97
2023-02-23T18:33:21.960Z,17.83
2023-02-23T18:35:52.069Z,16.55
2023-02-23T18:38:21.681Z,16.23
2023-02-23T18:40:51.484Z,16.23
2023-02-23T18:43:21.044Z,17.20
2023-02-23T18:45:50.910Z,18.37
2023-02-23T18:48:20.644Z,16.60
2023-02-23T18:50:51.947Z,15.80
2023-02-23T18:53:21.814Z,17.80
2023-02-23T18:55:51.691Z,17.43
2023-02-23T18:58:21.332Z,15.87
2023-02-23T19:00:53.141Z,14.73
2023-02-23T19:03:22.993Z,15.90
2023-02-23T19:05:55.519Z,15.60
2023-02-23T19:08:25.307Z,14.55
2023-02-23T19:10:55.013Z,15.33
2023-02-23T19:13:24.870Z,14.63
2023-02-23T19:15:54.793Z,15.10
2023-02-23T19:18:25.699Z,14.00
2023-02-23T19:20:55.490Z,14.45
2023-02-23T19:23:25.441Z,16.30
2023-02-23T19:25:55.713Z,15.40
2023-02-23T19:28:27.238Z,14.83
2023-02-23T19:31:08.950Z,14.47
2023-02-23T19:36:15.032Z,14.70
2023-02-23T19:38:45.620Z,15.03
2023-02-23T19:41:18.795Z,13.93
2023-02-23T19:43:48.850Z,13.80
2023-02-23T19:46:19.954Z,15.67
2023-02-23T19:48:52.086Z,16.48
2023-02-23T19:51:22.516Z,17.13
2023-02-23T19:53:55.062Z,17.52
2023-02-23T19:56:27.945Z,16.23
2023-02-23T19:58:58.858Z,19.17
2023-02-23T20:01:29.969Z,18.52
2023-02-23T20:04:06.655Z,16.83
2023-02-23T20:06:43.941Z,17.53
2023-02-23T20:09:15.158Z,16.80
2023-02-23T20:11:44.980Z,19.20
2023-02-23T20:14:15.456Z,17.63
2023-02-23T20:16:45.203Z,18.83
2023-02-23T20:19:15.026Z,20.57
2023-02-23T20:21:44.911Z,18.60
2023-02-23T20:24:14.564Z,18.50
2023-02-23T20:26:44.359Z,17.53
2023-02-23T20:29:18.125Z,18.67
2023-02-23T20:31:51.232Z,16.53
2023-02-23T20:34:24.656Z,16.03
2023-02-23T20:36:55.717Z,17.17
2023-02-23T20:39:26.873Z,15.48
2023-02-23T20:41:56.663Z,16.53
2023-02-23T20:44:28.045Z,15.67
2023-02-23T20:46:58.114Z,15.13
2023-02-23T20:49:29.682Z,14.93
2023-02-23T20:51:59.531Z,12.13
2023-02-23T20:54:29.345Z,14.73
2023-02-23T20:57:03.561Z,16.40
2023-02-23T20:59:34.140Z,15.73
2023-02-23T21:02:04.945Z,15.03
2023-02-23T21:04:38.469Z,16.85
2023-02-23T21:07:09.146Z,15.50
2023-02-23T21:09:40.635Z,14.90
2023-02-23T21:12:10.857Z,13.23
2023-02-23T21:14:40.781Z,14.77
2023-02-23T21:17:10.701Z,15.13
2023-02-23T21:19:40.593Z,14.17
2023-02-23T21:22:11.362Z,15.03
2023-02-23T21:27:13.303Z,14.10
2023-02-23T21:29:44.114Z,14.93
2023-02-23T21:32:16.773Z,14.03
2023-02-23T21:34:46.661Z,14.17
2023-02-23T21:37:17.182Z,15.40
2023-02-23T21:39:47.111Z,15.17
2023-02-23T21:42:16.905Z,14.93
2023-02-23T21:44:47.016Z,15.47
2023-02-23T21:47:16.898Z,13.72
2023-02-23T21:49:48.400Z,15.03
2023-02-23T21:52:18.864Z,16.07
2023-02-23T21:54:52.528Z,16.30
2023-02-23T21:57:26.346Z,16.03
2023-02-23T21:59:56.762Z,15.50
2023-02-23T22:02:28.286Z,15.27
2023-02-23T22:07:29.280Z,13.65
2023-02-23T22:09:59.212Z,17.10
2023-02-23T22:12:29.302Z,13.75
2023-02-23T22:14:59.685Z,15.03
2023-02-23T22:17:31.098Z,15.20
2023-02-23T22:20:01.003Z,15.27
2023-02-23T22:22:32.794Z,15.73
2023-02-23T22:25:06.950Z,15.33
2023-02-23T22:27:36.773Z,14.40
2023-02-23T22:30:09.365Z,15.10
2023-02-23T22:32:40.465Z,15.93
2023-02-23T22:35:10.921Z,16.23
2023-02-23T22:37:40.969Z,14.73
2023-02-23T22:40:15.649Z,14.70
2023-02-23T22:42:48.721Z,14.60
2023-02-23T22:45:20.294Z,15.70
2023-02-23T22:50:19.503Z,15.20
2023-02-23T22:52:49.873Z,14.33
2023-02-23T22:55:19.403Z,15.00
2023-02-23T22:57:49.174Z,15.93
2023-02-23T23:00:20.236Z,15.07
2023-02-23T23:02:50.213Z,17.00
2023-02-23T23:05:21.665Z,15.27
2023-02-23T23:07:51.420Z,15.05
2023-02-23T23:10:21.309Z,13.93
2023-02-23T23:12:51.143Z,13.83
2023-02-23T23:15:22.187Z,14.10
2023-02-23T23:17:52.487Z,16.47
2023-02-23T23:20:25.177Z,15.87
2023-02-23T23:22:56.870Z,13.40
2023-02-23T23:25:28.923Z,14.57
2023-02-23T23:27:58.548Z,15.77
2023-02-23T23:30:29.328Z,14.70
2023-02-23T23:33:00.988Z,15.25
2023-02-23T23:35:32.916Z,16.45
2023-02-23T23:38:03.142Z,13.70
2023-02-23T23:40:34.924Z,14.03
2023-02-23T23:43:06.356Z,14.57
2023-02-23T23:45:38.277Z,15.33
2023-02-23T23:48:09.498Z,13.87
2023-02-23T23:50:39.701Z,13.97
2023-02-23T23:53:10.521Z,14.10
2023-02-23T23:55:40.842Z,15.18
2023-02-23T23:58:10.497Z,14.60
